sensor_id;sensor_type;location;lat;lon;timestamp;P1;durP1;ratioP1;P2;durP2;ratioP2
52564;SDS011;38460;53.106;7.004;2023-12-14T00:01:44;9.25;;;5.65;;
52564;SDS011;38460;53.106;7.004;2023-12-14T00:04:11;8.00;;;5.93;;
52564;SDS011;38460;53.106;7.004;2023-12-14T00:06:37;8.23;;;5.55;;
52564;SDS011;38460;53.106;7.004;2023-12-14T00:09:03;6.20;;;4.75;;
52564;SDS011;38460;53.106;7.004;2023-12-14T00:11:28;8.07;;;5.25;;
52564;SDS011;38460;53.106;7.004;2023-12-14T00:13:55;9.20;;;5.78;;
52564;SDS011;38460;53.106;7.004;2023-12-14T00:16:21;8.15;;;5.25;;
52564;SDS011;38460;53.106;7.004;2023-12-14T00:18:46;9.30;;;5.20;;
52564;SDS011;38460;53.106;7.004;2023-12-14T00:21:12;10.90;;;5.20;;
52564;SDS011;38460;53.106;7.004;2023-12-14T00:23:38;7.82;;;4.55;;
52564;SDS011;38460;53.106;7.004;2023-12-14T00:26:04;6.97;;;4.53;;
52564;SDS011;38460;53.106;7.004;2023-12-14T00:28:29;10.48;;;5.10;;
52564;SDS011;38460;53.106;7.004;2023-12-14T00:30:55;8.27;;;4.38;;
52564;SDS011;38460;53.106;7.004;2023-12-14T00:33:21;8.60;;;5.05;;
52564;SDS011;38460;53.106;7.004;2023-12-14T00:35:47;7.00;;;4.20;;
52564;SDS011;38460;53.106;7.004;2023-12-14T00:38:13;8.98;;;5.00;;
52564;SDS011;38460;53.106;7.004;2023-12-14T00:40:39;9.60;;;4.80;;
52564;SDS011;38460;53.106;7.004;2023-12-14T00:43:06;8.32;;;4.55;;
52564;SDS011;38460;53.106;7.004;2023-12-14T00:45:31;7.90;;;4.15;;
52564;SDS011;38460;53.106;7.004;2023-12-14T00:47:57;9.20;;;4.75;;
52564;SDS011;38460;53.106;7.004;2023-12-14T00:50:23;8.05;;;4.45;;
52564;SDS011;38460;53.106;7.004;2023-12-14T00:52:49;7.60;;;4.18;;
52564;SDS011;38460;53.106;7.004;2023-12-14T00:55:14;7.13;;;4.32;;
52564;SDS011;38460;53.106;7.004;2023-12-14T00:57:40;8.48;;;4.75;;
52564;SDS011;38460;53.106;7.004;2023-12-14T01:00:06;9.27;;;5.00;;
52564;SDS011;38460;53.106;7.004;2023-12-14T01:02:34;9.75;;;4.75;;
52564;SDS011;38460;53.106;7.004;2023-12-14T01:05:00;7.68;;;4.50;;
52564;SDS011;38460;53.106;7.004;2023-12-14T01:07:25;7.05;;;5.07;;
52564;SDS011;38460;53.106;7.004;2023-12-14T01:09:51;7.70;;;4.90;;
52564;SDS011;38460;53.106;7.004;2023-12-14T01:12:17;7.32;;;5.28;;
52564;SDS011;38460;53.106;7.004;2023-12-14T01:14:42;8.18;;;4.82;;
52564;SDS011;38460;53.106;7.004;2023-12-14T01:17:08;8.30;;;4.55;;
52564;SDS011;38460;53.106;7.004;2023-12-14T01:19:34;7.35;;;4.57;;
52564;SDS011;38460;53.106;7.004;2023-12-14T01:22:00;8.95;;;5.22;;
52564;SDS011;38460;53.106;7.004;2023-12-14T01:24:25;9.00;;;5.22;;
52564;SDS011;38460;53.106;7.004;2023-12-14T01:26:51;8.88;;;4.63;;
52564;SDS011;38460;53.106;7.004;2023-12-14T01:29:17;7.65;;;4.63;;
52564;SDS011;38460;53.106;7.004;2023-12-14T01:31:42;8.02;;;4.10;;
52564;SDS011;38460;53.106;7.004;2023-12-14T01:34:08;9.10;;;4.35;;
52564;SDS011;38460;53.106;7.004;2023-12-14T01:36:36;7.80;;;4.38;;
52564;SDS011;38460;53.106;7.004;2023-12-14T01:39:02;10.02;;;4.38;;
52564;SDS011;38460;53.106;7.004;2023-12-14T01:41:28;10.32;;;4.63;;
52564;SDS011;38460;53.106;7.004;2023-12-14T01:43:54;11.18;;;4.82;;
52564;SDS011;38460;53.106;7.004;2023-12-14T01:46:19;10.68;;;4.40;;
52564;SDS011;38460;53.106;7.004;2023-12-14T01:48:45;7.65;;;4.75;;
52564;SDS011;38460;53.106;7.004;2023-12-14T01:51:11;10.80;;;5.35;;
52564;SDS011;38460;53.106;7.004;2023-12-14T01:53:36;9.48;;;4.93;;
52564;SDS011;38460;53.106;7.004;2023-12-14T01:56:02;7.00;;;3.97;;
52564;SDS011;38460;53.106;7.004;2023-12-14T01:58:28;9.07;;;5.13;;
52564;SDS011;38460;53.106;7.004;2023-12-14T02:03:25;11.32;;;5.63;;
52564;SDS011;38460;53.106;7.004;2023-12-14T02:05:51;13.48;;;5.63;;
52564;SDS011;38460;53.106;7.004;2023-12-14T02:08:16;11.07;;;5.80;;
52564;SDS011;38460;53.106;7.004;2023-12-14T02:10:42;10.43;;;6.18;;
52564;SDS011;38460;53.106;7.004;2023-12-14T02:13:08;13.48;;;7.30;;
52564;SDS011;38460;53.106;7.004;2023-12-14T02:15:34;13.82;;;6.90;;
52564;SDS011;38460;53.106;7.004;2023-12-14T02:17:59;12.27;;;7.35;;
52564;SDS011;38460;53.106;7.004;2023-12-14T02:20:25;11.27;;;7.40;;
52564;SDS011;38460;53.106;7.004;2023-12-14T02:22:51;13.13;;;7.15;;
52564;SDS011;38460;53.106;7.004;2023-12-14T02:25:18;14.07;;;7.32;;
52564;SDS011;38460;53.106;7.004;2023-12-14T02:27:44;14.95;;;7.63;;
52564;SDS011;38460;53.106;7.004;2023-12-14T02:30:11;14.90;;;7.53;;
52564;SDS011;38460;53.106;7.004;2023-12-14T02:32:38;15.43;;;7.30;;
52564;SDS011;38460;53.106;7.004;2023-12-14T02:35:04;12.40;;;7.55;;
52564;SDS011;38460;53.106;7.004;2023-12-14T02:37:31;12.27;;;7.32;;
52564;SDS011;38460;53.106;7.004;2023-12-14T02:39:57;13.38;;;7.78;;
52564;SDS011;38460;53.106;7.004;2023-12-14T02:42:23;16.40;;;7.80;;
52564;SDS011;38460;53.106;7.004;2023-12-14T02:44:49;15.10;;;7.70;;
52564;SDS011;38460;53.106;7.004;2023-12-14T02:47:15;14.82;;;7.80;;
52564;SDS011;38460;53.106;7.004;2023-12-14T02:49:42;16.05;;;8.23;;
52564;SDS011;38460;53.106;7.004;2023-12-14T02:52:09;14.27;;;6.70;;
52564;SDS011;38460;53.106;7.004;2023-12-14T02:54:35;12.63;;;7.13;;
52564;SDS011;38460;53.106;7.004;2023-12-14T02:57:03;12.02;;;6.72;;
52564;SDS011;38460;53.106;7.004;2023-12-14T02:59:29;12.45;;;6.82;;
52564;SDS011;38460;53.106;7.004;2023-12-14T03:01:54;12.95;;;6.95;;
52564;SDS011;38460;53.106;7.004;2023-12-14T03:04:20;15.32;;;7.53;;
52564;SDS011;38460;53.106;7.004;2023-12-14T03:06:46;13.15;;;7.13;;
52564;SDS011;38460;53.106;7.004;2023-12-14T03:09:12;15.35;;;7.38;;
52564;SDS011;38460;53.106;7.004;2023-12-14T03:11:37;14.05;;;7.25;;
52564;SDS011;38460;53.106;7.004;2023-12-14T03:14:03;18.70;;;7.07;;
52564;SDS011;38460;53.106;7.004;2023-12-14T03:16:29;17.02;;;7.05;;
52564;SDS011;38460;53.106;7.004;2023-12-14T03:18:55;16.20;;;7.47;;
52564;SDS011;38460;53.106;7.004;2023-12-14T03:21:22;15.52;;;7.93;;
52564;SDS011;38460;53.106;7.004;2023-12-14T03:23:48;15.27;;;7.68;;
52564;SDS011;38460;53.106;7.004;2023-12-14T03:26:17;14.15;;;7.38;;
52564;SDS011;38460;53.106;7.004;2023-12-14T03:28:43;13.30;;;7.15;;
52564;SDS011;38460;53.106;7.004;2023-12-14T03:31:11;14.50;;;7.65;;
52564;SDS011;38460;53.106;7.004;2023-12-14T03:33:41;12.50;;;7.95;;
52564;SDS011;38460;53.106;7.004;2023-12-14T03:36:07;14.50;;;7.63;;
52564;SDS011;38460;53.106;7.004;2023-12-14T03:38:33;15.68;;;7.03;;
52564;SDS011;38460;53.106;7.004;2023-12-14T03:40:59;14.02;;;6.80;;
52564;SDS011;38460;53.106;7.004;2023-12-14T03:43:25;14.55;;;7.30;;
52564;SDS011;38460;53.106;7.004;2023-12-14T03:45:51;14.23;;;7.30;;
52564;SDS011;38460;53.106;7.004;2023-12-14T03:48:16;12.75;;;6.57;;
52564;SDS011;38460;53.106;7.004;2023-12-14T03:50:42;14.65;;;7.32;;
52564;SDS011;38460;53.106;7.004;2023-12-14T03:53:08;13.73;;;7.60;;
52564;SDS011;38460;53.106;7.004;2023-12-14T03:55:34;10.73;;;6.55;;
52564;SDS011;38460;53.106;7.004;2023-12-14T03:58:00;15.30;;;7.25;;
52564;SDS011;38460;53.106;7.004;2023-12-14T04:00:25;14.10;;;7.88;;
52564;SDS011;38460;53.106;7.004;2023-12-14T04:02:51;14.35;;;7.18;;
52564;SDS011;38460;53.106;7.004;2023-12-14T04:05:17;14.07;;;7.25;;
52564;SDS011;38460;53.106;7.004;2023-12-14T04:07:43;13.73;;;7.57;;
52564;SDS011;38460;53.106;7.004;2023-12-14T04:10:09;14.75;;;8.00;;
52564;SDS011;38460;53.106;7.004;2023-12-14T04:12:36;17.80;;;8.90;;
52564;SDS011;38460;53.106;7.004;2023-12-14T04:15:03;13.68;;;7.78;;
52564;SDS011;38460;53.106;7.004;2023-12-14T04:17:32;12.70;;;7.00;;
52564;SDS011;38460;53.106;7.004;2023-12-14T04:19:59;15.77;;;7.90;;
52564;SDS011;38460;53.106;7.004;2023-12-14T04:22:25;13.68;;;7.63;;
52564;SDS011;38460;53.106;7.004;2023-12-14T04:24:51;14.50;;;7.93;;
52564;SDS011;38460;53.106;7.004;2023-12-14T04:27:17;17.70;;;8.40;;
52564;SDS011;38460;53.106;7.004;2023-12-14T04:29:43;15.90;;;8.07;;
52564;SDS011;38460;53.106;7.004;2023-12-14T04:32:09;14.25;;;8.50;;
52564;SDS011;38460;53.106;7.004;2023-12-14T04:34:35;19.65;;;8.90;;
52564;SDS011;38460;53.106;7.004;2023-12-14T04:37:01;14.75;;;8.20;;
52564;SDS011;38460;53.106;7.004;2023-12-14T04:39:27;15.23;;;7.47;;
52564;SDS011;38460;53.106;7.004;2023-12-14T04:41:53;17.27;;;8.52;;
52564;SDS011;38460;53.106;7.004;2023-12-14T04:44:19;15.15;;;8.30;;
52564;SDS011;38460;53.106;7.004;2023-12-14T04:46:46;17.55;;;9.10;;
52564;SDS011;38460;53.106;7.004;2023-12-14T04:49:12;19.35;;;8.85;;
52564;SDS011;38460;53.106;7.004;2023-12-14T04:51:38;15.50;;;8.90;;
52564;SDS011;38460;53.106;7.004;2023-12-14T04:54:04;20.58;;;9.05;;
52564;SDS011;38460;53.106;7.004;2023-12-14T04:56:30;15.73;;;7.80;;
52564;SDS011;38460;53.106;7.004;2023-12-14T04:58:56;17.02;;;8.30;;
52564;SDS011;38460;53.106;7.004;2023-12-14T05:01:22;18.73;;;8.50;;
52564;SDS011;38460;53.106;7.004;2023-12-14T05:03:48;15.50;;;9.00;;
52564;SDS011;38460;53.106;7.004;2023-12-14T05:06:16;15.90;;;8.80;;
52564;SDS011;38460;53.106;7.004;2023-12-14T05:08:42;18.50;;;8.63;;
52564;SDS011;38460;53.106;7.004;2023-12-14T05:11:08;20.33;;;8.55;;
52564;SDS011;38460;53.106;7.004;2023-12-14T05:13:33;17.35;;;9.55;;
52564;SDS011;38460;53.106;7.004;2023-12-14T05:16:00;18.45;;;9.50;;
52564;SDS011;38460;53.106;7.004;2023-12-14T05:18:26;20.70;;;9.95;;
52564;SDS011;38460;53.106;7.004;2023-12-14T05:20:52;21.58;;;9.63;;
52564;SDS011;38460;53.106;7.004;2023-12-14T05:23:18;15.75;;;9.18;;
52564;SDS011;38460;53.106;7.004;2023-12-14T05:25:44;19.25;;;9.40;;
52564;SDS011;38460;53.106;7.004;2023-12-14T05:28:10;17.20;;;8.80;;
52564;SDS011;38460;53.106;7.004;2023-12-14T05:30:36;14.60;;;8.38;;
52564;SDS011;38460;53.106;7.004;2023-12-14T05:33:02;18.70;;;10.88;;
52564;SDS011;38460;53.106;7.004;2023-12-14T05:35:27;16.40;;;8.60;;
52564;SDS011;38460;53.106;7.004;2023-12-14T05:37:53;17.02;;;9.27;;
52564;SDS011;38460;53.106;7.004;2023-12-14T05:40:19;18.58;;;9.65;;
52564;SDS011;38460;53.106;7.004;2023-12-14T05:42:45;18.35;;;9.43;;
52564;SDS011;38460;53.106;7.004;2023-12-14T05:45:11;16.95;;;9.55;;
52564;SDS011;38460;53.106;7.004;2023-12-14T05:47:36;14.77;;;8.77;;
52564;SDS011;38460;53.106;7.004;2023-12-14T05:50:03;22.35;;;9.73;;
52564;SDS011;38460;53.106;7.004;2023-12-14T05:52:30;18.00;;;9.80;;
52564;SDS011;38460;53.106;7.004;2023-12-14T05:54:56;17.70;;;8.38;;
52564;SDS011;38460;53.106;7.004;2023-12-14T05:57:21;16.83;;;9.30;;
52564;SDS011;38460;53.106;7.004;2023-12-14T05:59:49;14.85;;;8.63;;
52564;SDS011;38460;53.106;7.004;2023-12-14T06:02:15;18.30;;;8.80;;
52564;SDS011;38460;53.106;7.004;2023-12-14T06:04:41;16.50;;;8.98;;
52564;SDS011;38460;53.106;7.004;2023-12-14T06:07:07;21.48;;;11.77;;
52564;SDS011;38460;53.106;7.004;2023-12-14T06:09:32;22.77;;;9.68;;
52564;SDS011;38460;53.106;7.004;2023-12-14T06:12:03;18.55;;;9.02;;
52564;SDS011;38460;53.106;7.004;2023-12-14T06:14:30;20.15;;;9.77;;
52564;SDS011;38460;53.106;7.004;2023-12-14T06:16:56;18.05;;;8.90;;
52564;SDS011;38460;53.106;7.004;2023-12-14T06:19:23;16.98;;;9.85;;
52564;SDS011;38460;53.106;7.004;2023-12-14T06:21:48;16.52;;;9.02;;
52564;SDS011;38460;53.106;7.004;2023-12-14T06:24:14;15.65;;;8.90;;
52564;SDS011;38460;53.106;7.004;2023-12-14T06:26:44;17.15;;;8.93;;
52564;SDS011;38460;53.106;7.004;2023-12-14T06:29:10;18.17;;;8.40;;
52564;SDS011;38460;53.106;7.004;2023-12-14T06:31:37;18.73;;;9.75;;
52564;SDS011;38460;53.106;7.004;2023-12-14T06:34:03;18.50;;;8.88;;
52564;SDS011;38460;53.106;7.004;2023-12-14T06:36:29;18.45;;;8.93;;
52564;SDS011;38460;53.106;7.004;2023-12-14T06:38:56;18.60;;;9.73;;
52564;SDS011;38460;53.106;7.004;2023-12-14T06:41:26;17.50;;;10.60;;
52564;SDS011;38460;53.106;7.004;2023-12-14T06:43:53;19.52;;;10.52;;
52564;SDS011;38460;53.106;7.004;2023-12-14T06:46:19;17.08;;;9.98;;
52564;SDS011;38460;53.106;7.004;2023-12-14T06:48:46;19.55;;;10.50;;
52564;SDS011;38460;53.106;7.004;2023-12-14T06:51:12;21.17;;;10.07;;
52564;SDS011;38460;53.106;7.004;2023-12-14T06:53:41;19.30;;;10.63;;
52564;SDS011;38460;53.106;7.004;2023-12-14T06:56:08;17.83;;;8.88;;
52564;SDS011;38460;53.106;7.004;2023-12-14T06:58:42;18.05;;;9.57;;
52564;SDS011;38460;53.106;7.004;2023-12-14T07:01:12;19.17;;;10.07;;
52564;SDS011;38460;53.106;7.004;2023-12-14T07:03:40;17.75;;;10.00;;
52564;SDS011;38460;53.106;7.004;2023-12-14T07:06:06;18.67;;;9.23;;
52564;SDS011;38460;53.106;7.004;2023-12-14T07:08:32;28.05;;;10.38;;
52564;SDS011;38460;53.106;7.004;2023-12-14T07:10:58;20.30;;;10.82;;
52564;SDS011;38460;53.106;7.004;2023-12-14T07:13:24;27.25;;;10.45;;
52564;SDS011;38460;53.106;7.004;2023-12-14T07:15:50;17.13;;;9.90;;
52564;SDS011;38460;53.106;7.004;2023-12-14T07:18:16;18.65;;;10.15;;
52564;SDS011;38460;53.106;7.004;2023-12-14T07:20:42;22.45;;;10.32;;
52564;SDS011;38460;53.106;7.004;2023-12-14T07:23:08;22.88;;;11.65;;
52564;SDS011;38460;53.106;7.004;2023-12-14T07:25:33;22.50;;;11.90;;
52564;SDS011;38460;53.106;7.004;2023-12-14T07:27:59;21.83;;;11.27;;
52564;SDS011;38460;53.106;7.004;2023-12-14T07:30:25;20.48;;;10.90;;
52564;SDS011;38460;53.106;7.004;2023-12-14T07:32:50;27.65;;;10.95;;
52564;SDS011;38460;53.106;7.004;2023-12-14T07:35:16;20.63;;;11.02;;
52564;SDS011;38460;53.106;7.004;2023-12-14T07:37:42;20.55;;;11.20;;
52564;SDS011;38460;53.106;7.004;2023-12-14T07:40:08;20.95;;;11.18;;
52564;SDS011;38460;53.106;7.004;2023-12-14T07:42:34;23.25;;;11.68;;
52564;SDS011;38460;53.106;7.004;2023-12-14T07:45:00;24.48;;;11.68;;
52564;SDS011;38460;53.106;7.004;2023-12-14T07:47:26;25.00;;;11.20;;
52564;SDS011;38460;53.106;7.004;2023-12-14T07:49:51;27.15;;;13.63;;
52564;SDS011;38460;53.106;7.004;2023-12-14T07:52:17;22.65;;;11.77;;
52564;SDS011;38460;53.106;7.004;2023-12-14T07:54:43;23.92;;;13.00;;
52564;SDS011;38460;53.106;7.004;2023-12-14T07:57:09;21.33;;;11.13;;
52564;SDS011;38460;53.106;7.004;2023-12-14T07:59:35;26.20;;;11.15;;
52564;SDS011;38460;53.106;7.004;2023-12-14T08:02:01;22.23;;;11.93;;
52564;SDS011;38460;53.106;7.004;2023-12-14T08:04:26;26.17;;;11.30;;
52564;SDS011;38460;53.106;7.004;2023-12-14T08:06:52;20.00;;;11.68;;
52564;SDS011;38460;53.106;7.004;2023-12-14T08:09:18;25.30;;;11.90;;
52564;SDS011;38460;53.106;7.004;2023-12-14T08:11:43;23.33;;;12.93;;
52564;SDS011;38460;53.106;7.004;2023-12-14T08:14:09;22.63;;;11.55;;
52564;SDS011;38460;53.106;7.004;2023-12-14T08:16:35;21.20;;;11.52;;
52564;SDS011;38460;53.106;7.004;2023-12-14T08:19:01;24.23;;;11.15;;
52564;SDS011;38460;53.106;7.004;2023-12-14T08:21:26;19.27;;;9.93;;
52564;SDS011;38460;53.106;7.004;2023-12-14T08:23:52;19.80;;;11.02;;
52564;SDS011;38460;53.106;7.004;2023-12-14T08:26:18;25.05;;;11.63;;
52564;SDS011;38460;53.106;7.004;2023-12-14T08:28:43;21.83;;;11.35;;
52564;SDS011;38460;53.106;7.004;2023-12-14T08:31:09;22.80;;;12.20;;
52564;SDS011;38460;53.106;7.004;2023-12-14T08:33:37;23.75;;;11.88;;
52564;SDS011;38460;53.106;7.004;2023-12-14T08:36:02;26.20;;;13.48;;
52564;SDS011;38460;53.106;7.004;2023-12-14T08:38:30;22.17;;;10.90;;
52564;SDS011;38460;53.106;7.004;2023-12-14T08:40:56;21.70;;;11.10;;
52564;SDS011;38460;53.106;7.004;2023-12-14T08:43:22;22.02;;;11.68;;
52564;SDS011;38460;53.106;7.004;2023-12-14T08:45:47;20.05;;;10.45;;
52564;SDS011;38460;53.106;7.004;2023-12-14T08:48:13;19.13;;;10.77;;
52564;SDS011;38460;53.106;7.004;2023-12-14T08:50:39;20.05;;;11.77;;
52564;SDS011;38460;53.106;7.004;2023-12-14T08:53:05;20.25;;;10.40;;
52564;SDS011;38460;53.106;7.004;2023-12-14T08:55:31;20.45;;;11.15;;
52564;SDS011;38460;53.106;7.004;2023-12-14T08:57:57;20.83;;;11.23;;
52564;SDS011;38460;53.106;7.004;2023-12-14T09:00:23;21.25;;;10.57;;
52564;SDS011;38460;53.106;7.004;2023-12-14T09:02:49;20.42;;;10.50;;
52564;SDS011;38460;53.106;7.004;2023-12-14T09:05:15;20.70;;;11.27;;
52564;SDS011;38460;53.106;7.004;2023-12-14T09:07:41;22.92;;;11.50;;
52564;SDS011;38460;53.106;7.004;2023-12-14T09:10:08;24.45;;;12.35;;
52564;SDS011;38460;53.106;7.004;2023-12-14T09:12:34;22.40;;;10.63;;
52564;SDS011;38460;53.106;7.004;2023-12-14T09:15:00;20.30;;;10.50;;
52564;SDS011;38460;53.106;7.004;2023-12-14T09:17:26;21.75;;;10.70;;
52564;SDS011;38460;53.106;7.004;2023-12-14T09:19:57;22.63;;;12.20;;
52564;SDS011;38460;53.106;7.004;2023-12-14T09:22:24;20.77;;;11.57;;
52564;SDS011;38460;53.106;7.004;2023-12-14T09:24:50;23.10;;;12.18;;
52564;SDS011;38460;53.106;7.004;2023-12-14T09:27:16;19.75;;;11.60;;
52564;SDS011;38460;53.106;7.004;2023-12-14T09:29:42;23.17;;;11.73;;
52564;SDS011;38460;53.106;7.004;2023-12-14T09:32:08;22.10;;;10.68;;
52564;SDS011;38460;53.106;7.004;2023-12-14T09:34:34;26.05;;;11.43;;
52564;SDS011;38460;53.106;7.004;2023-12-14T09:37:00;20.98;;;10.27;;
52564;SDS011;38460;53.106;7.004;2023-12-14T09:39:26;19.48;;;10.93;;
52564;SDS011;38460;53.106;7.004;2023-12-14T09:42:00;20.92;;;11.05;;
52564;SDS011;38460;53.106;7.004;2023-12-14T09:44:31;25.50;;;11.32;;
52564;SDS011;38460;53.106;7.004;2023-12-14T09:46:58;21.80;;;10.77;;
52564;SDS011;38460;53.106;7.004;2023-12-14T09:49:28;23.02;;;10.50;;
52564;SDS011;38460;53.106;7.004;2023-12-14T09:51:58;19.95;;;9.98;;
52564;SDS011;38460;53.106;7.004;2023-12-14T09:54:26;23.25;;;10.75;;
52564;SDS011;38460;53.106;7.004;2023-12-14T09:56:52;17.75;;;10.45;;
52564;SDS011;38460;53.106;7.004;2023-12-14T09:59:19;20.88;;;10.15;;
52564;SDS011;38460;53.106;7.004;2023-12-14T10:01:46;25.65;;;10.75;;
52564;SDS011;38460;53.106;7.004;2023-12-14T10:04:16;20.13;;;9.77;;
52564;SDS011;38460;53.106;7.004;2023-12-14T10:06:44;21.35;;;11.15;;
52564;SDS011;38460;53.106;7.004;2023-12-14T10:09:11;19.20;;;9.32;;
52564;SDS011;38460;53.106;7.004;2023-12-14T10:11:41;18.02;;;10.07;;
52564;SDS011;38460;53.106;7.004;2023-12-14T10:14:26;18.17;;;10.20;;
52564;SDS011;38460;53.106;7.004;2023-12-14T10:16:52;26.58;;;11.55;;
52564;SDS011;38460;53.106;7.004;2023-12-14T10:19:19;19.67;;;11.18;;
52564;SDS011;38460;53.106;7.004;2023-12-14T10:21:48;16.88;;;9.98;;
52564;SDS011;38460;53.106;7.004;2023-12-14T10:24:15;25.27;;;10.55;;
52564;SDS011;38460;53.106;7.004;2023-12-14T10:26:44;19.50;;;9.57;;
52564;SDS011;38460;53.106;7.004;2023-12-14T10:29:10;21.42;;;10.13;;
52564;SDS011;38460;53.106;7.004;2023-12-14T10:31:36;19.98;;;10.07;;
52564;SDS011;38460;53.106;7.004;2023-12-14T10:34:04;19.92;;;10.52;;
52564;SDS011;38460;53.106;7.004;2023-12-14T10:36:31;23.48;;;10.45;;
52564;SDS011;38460;53.106;7.004;2023-12-14T10:38:58;22.80;;;10.85;;
52564;SDS011;38460;53.106;7.004;2023-12-14T10:41:25;20.58;;;9.60;;
52564;SDS011;38460;53.106;7.004;2023-12-14T10:43:55;18.88;;;10.38;;
52564;SDS011;38460;53.106;7.004;2023-12-14T10:46:21;19.83;;;9.95;;
52564;SDS011;38460;53.106;7.004;2023-12-14T10:48:51;19.48;;;10.05;;
52564;SDS011;38460;53.106;7.004;2023-12-14T10:51:18;18.52;;;10.25;;
52564;SDS011;38460;53.106;7.004;2023-12-14T10:53:47;17.35;;;9.43;;
52564;SDS011;38460;53.106;7.004;2023-12-14T10:56:14;19.65;;;8.93;;
52564;SDS011;38460;53.106;7.004;2023-12-14T10:58:45;17.77;;;9.63;;
52564;SDS011;38460;53.106;7.004;2023-12-14T11:01:19;18.08;;;9.55;;
52564;SDS011;38460;53.106;7.004;2023-12-14T11:03:46;17.65;;;9.13;;
52564;SDS011;38460;53.106;7.004;2023-12-14T11:06:29;20.85;;;10.63;;
52564;SDS011;38460;53.106;7.004;2023-12-14T11:08:58;21.38;;;10.95;;
52564;SDS011;38460;53.106;7.004;2023-12-14T11:11:28;23.42;;;11.25;;
52564;SDS011;38460;53.106;7.004;2023-12-14T11:13:54;18.25;;;9.65;;
52564;SDS011;38460;53.106;7.004;2023-12-14T11:16:21;20.85;;;9.90;;
52564;SDS011;38460;53.106;7.004;2023-12-14T11:18:48;20.40;;;10.93;;
52564;SDS011;38460;53.106;7.004;2023-12-14T11:21:34;21.00;;;10.70;;
52564;SDS011;38460;53.106;7.004;2023-12-14T11:24:00;18.65;;;10.68;;
52564;SDS011;38460;53.106;7.004;2023-12-14T11:26:26;19.23;;;10.05;;
52564;SDS011;38460;53.106;7.004;2023-12-14T11:28:54;18.85;;;10.18;;
52564;SDS011;38460;53.106;7.004;2023-12-14T11:31:19;21.42;;;10.98;;
52564;SDS011;38460;53.106;7.004;2023-12-14T11:33:46;21.88;;;10.13;;
52564;SDS011;38460;53.106;7.004;2023-12-14T11:36:13;18.65;;;10.65;;
52564;SDS011;38460;53.106;7.004;2023-12-14T11:38:39;17.60;;;10.70;;
52564;SDS011;38460;53.106;7.004;2023-12-14T11:41:05;18.80;;;10.25;;
52564;SDS011;38460;53.106;7.004;2023-12-14T11:43:38;20.63;;;11.30;;
52564;SDS011;38460;53.106;7.004;2023-12-14T11:46:07;25.05;;;12.13;;
52564;SDS011;38460;53.106;7.004;2023-12-14T11:48:34;18.50;;;12.15;;
52564;SDS011;38460;53.106;7.004;2023-12-14T11:51:00;22.17;;;12.00;;
52564;SDS011;38460;53.106;7.004;2023-12-14T11:53:26;16.85;;;10.85;;
52564;SDS011;38460;53.106;7.004;2023-12-14T11:55:52;20.40;;;11.95;;
52564;SDS011;38460;53.106;7.004;2023-12-14T11:58:18;19.88;;;11.98;;
52564;SDS011;38460;53.106;7.004;2023-12-14T12:00:44;18.67;;;11.27;;
52564;SDS011;38460;53.106;7.004;2023-12-14T12:03:18;23.70;;;12.20;;
52564;SDS011;38460;53.106;7.004;2023-12-14T12:05:49;20.10;;;12.18;;
52564;SDS011;38460;53.106;7.004;2023-12-14T12:08:17;23.25;;;12.65;;
52564;SDS011;38460;53.106;7.004;2023-12-14T12:10:44;22.98;;;12.02;;
52564;SDS011;38460;53.106;7.004;2023-12-14T12:13:18;22.35;;;11.60;;
52564;SDS011;38460;53.106;7.004;2023-12-14T12:15:45;23.60;;;12.75;;
52564;SDS011;38460;53.106;7.004;2023-12-14T12:18:12;24.67;;;12.63;;
52564;SDS011;38460;53.106;7.004;2023-12-14T12:20:39;23.88;;;11.50;;
52564;SDS011;38460;53.106;7.004;2023-12-14T12:23:05;20.85;;;11.30;;
52564;SDS011;38460;53.106;7.004;2023-12-14T12:25:32;26.90;;;12.82;;
52564;SDS011;38460;53.106;7.004;2023-12-14T12:27:58;24.88;;;13.10;;
52564;SDS011;38460;53.106;7.004;2023-12-14T12:30:25;19.48;;;10.23;;
52564;SDS011;38460;53.106;7.004;2023-12-14T12:32:51;22.67;;;11.82;;
52564;SDS011;38460;53.106;7.004;2023-12-14T12:35:18;22.58;;;12.30;;
52564;SDS011;38460;53.106;7.004;2023-12-14T12:37:44;21.30;;;11.35;;
52564;SDS011;38460;53.106;7.004;2023-12-14T12:40:10;25.33;;;11.15;;
52564;SDS011;38460;53.106;7.004;2023-12-14T12:42:36;22.08;;;12.20;;
52564;SDS011;38460;53.106;7.004;2023-12-14T12:45:02;19.58;;;11.18;;
52564;SDS011;38460;53.106;7.004;2023-12-14T12:47:29;20.80;;;11.18;;
52564;SDS011;38460;53.106;7.004;2023-12-14T12:49:55;24.77;;;11.35;;
52564;SDS011;38460;53.106;7.004;2023-12-14T12:52:21;18.23;;;10.75;;
52564;SDS011;38460;53.106;7.004;2023-12-14T12:54:47;20.48;;;10.68;;
52564;SDS011;38460;53.106;7.004;2023-12-14T12:57:13;26.17;;;12.10;;
52564;SDS011;38460;53.106;7.004;2023-12-14T12:59:39;18.50;;;10.55;;
52564;SDS011;38460;53.106;7.004;2023-12-14T13:02:05;19.40;;;9.88;;
52564;SDS011;38460;53.106;7.004;2023-12-14T13:04:31;19.70;;;11.25;;
52564;SDS011;38460;53.106;7.004;2023-12-14T13:06:57;17.55;;;10.15;;
52564;SDS011;38460;53.106;7.004;2023-12-14T13:09:22;22.38;;;11.80;;
52564;SDS011;38460;53.106;7.004;2023-12-14T13:11:48;19.00;;;11.40;;
52564;SDS011;38460;53.106;7.004;2023-12-14T13:14:15;20.20;;;10.98;;
52564;SDS011;38460;53.106;7.004;2023-12-14T13:16:41;24.63;;;11.60;;
52564;SDS011;38460;53.106;7.004;2023-12-14T13:19:08;21.17;;;11.48;;
52564;SDS011;38460;53.106;7.004;2023-12-14T13:21:34;20.63;;;11.35;;
52564;SDS011;38460;53.106;7.004;2023-12-14T13:24:01;18.85;;;10.43;;
52564;SDS011;38460;53.106;7.004;2023-12-14T13:26:28;22.15;;;12.90;;
52564;SDS011;38460;53.106;7.004;2023-12-14T13:28:54;22.50;;;11.95;;
52564;SDS011;38460;53.106;7.004;2023-12-14T13:31:20;21.77;;;12.15;;
52564;SDS011;38460;53.106;7.004;2023-12-14T13:33:46;19.88;;;10.68;;
52564;SDS011;38460;53.106;7.004;2023-12-14T13:36:13;21.23;;;11.27;;
52564;SDS011;38460;53.106;7.004;2023-12-14T13:38:40;19.95;;;11.80;;
52564;SDS011;38460;53.106;7.004;2023-12-14T13:41:06;22.67;;;12.48;;
52564;SDS011;38460;53.106;7.004;2023-12-14T13:43:33;22.63;;;10.98;;
52564;SDS011;38460;53.106;7.004;2023-12-14T13:45:59;22.65;;;11.25;;
52564;SDS011;38460;53.106;7.004;2023-12-14T13:48:25;20.17;;;11.02;;
52564;SDS011;38460;53.106;7.004;2023-12-14T13:50:52;20.08;;;11.07;;
52564;SDS011;38460;53.106;7.004;2023-12-14T13:53:18;18.80;;;10.18;;
52564;SDS011;38460;53.106;7.004;2023-12-14T13:55:44;20.70;;;10.45;;
52564;SDS011;38460;53.106;7.004;2023-12-14T13:58:11;18.70;;;9.82;;
52564;SDS011;38460;53.106;7.004;2023-12-14T14:00:38;19.65;;;11.02;;
52564;SDS011;38460;53.106;7.004;2023-12-14T14:03:04;17.35;;;10.32;;
52564;SDS011;38460;53.106;7.004;2023-12-14T14:05:31;18.25;;;10.38;;
52564;SDS011;38460;53.106;7.004;2023-12-14T14:07:57;17.92;;;10.07;;
52564;SDS011;38460;53.106;7.004;2023-12-14T14:10:23;15.98;;;10.27;;
52564;SDS011;38460;53.106;7.004;2023-12-14T14:12:49;23.58;;;10.50;;
52564;SDS011;38460;53.106;7.004;2023-12-14T14:15:15;19.38;;;9.90;;
52564;SDS011;38460;53.106;7.004;2023-12-14T14:17:41;20.90;;;11.13;;
52564;SDS011;38460;53.106;7.004;2023-12-14T14:20:07;21.58;;;10.60;;
52564;SDS011;38460;53.106;7.004;2023-12-14T14:22:35;23.35;;;10.57;;
52564;SDS011;38460;53.106;7.004;2023-12-14T14:25:04;16.70;;;9.93;;
52564;SDS011;38460;53.106;7.004;2023-12-14T14:27:31;21.50;;;10.80;;
52564;SDS011;38460;53.106;7.004;2023-12-14T14:29:58;19.10;;;9.40;;